sensor_id;sensor_type;location;lat;lon;timestamp;P1;durP1;ratioP1;P2;durP2;ratioP2
49972;SDS011;65693;49.798;10.968;2023-02-01T00:02:12;2.85;;;1.80;;
49972;SDS011;65693;49.798;10.968;2023-02-01T00:04:39;2.28;;;1.55;;
49972;SDS011;65693;49.798;10.968;2023-02-01T00:07:05;2.85;;;1.73;;
49972;SDS011;65693;49.798;10.968;2023-02-01T00:09:31;2.45;;;1.50;;
49972;SDS011;65693;49.798;10.968;2023-02-01T00:11:58;2.33;;;1.60;;
49972;SDS011;65693;49.798;10.968;2023-02-01T00:14:26;2.50;;;1.38;;
49972;SDS011;65693;49.798;10.968;2023-02-01T00:16:53;2.65;;;1.58;;
49972;SDS011;65693;49.798;10.968;2023-02-01T00:19:21;2.05;;;1.50;;
49972;SDS011;65693;49.798;10.968;2023-02-01T00:21:47;3.03;;;1.70;;
49972;SDS011;65693;49.798;10.968;2023-02-01T00:24:14;2.55;;;1.67;;
49972;SDS011;65693;49.798;10.968;2023-02-01T00:26:41;2.78;;;1.90;;
49972;SDS011;65693;49.798;10.968;2023-02-01T00:29:09;3.25;;;1.55;;
49972;SDS011;65693;49.798;10.968;2023-02-01T00:31:37;2.53;;;1.60;;
49972;SDS011;65693;49.798;10.968;2023-02-01T00:34:04;2.65;;;1.52;;
49972;SDS011;65693;49.798;10.968;2023-02-01T00:36:32;2.60;;;1.60;;
49972;SDS011;65693;49.798;10.968;2023-02-01T00:38:59;4.53;;;1.80;;
49972;SDS011;65693;49.798;10.968;2023-02-01T00:41:26;2.78;;;1.60;;
49972;SDS011;65693;49.798;10.968;2023-02-01T00:43:52;2.35;;;1.60;;
49972;SDS011;65693;49.798;10.968;2023-02-01T00:46:19;2.83;;;1.80;;
49972;SDS011;65693;49.798;10.968;2023-02-01T00:48:46;2.33;;;1.40;;
49972;SDS011;65693;49.798;10.968;2023-02-01T00:51:14;2.90;;;1.70;;
49972;SDS011;65693;49.798;10.968;2023-02-01T00:53:43;2.70;;;1.60;;
49972;SDS011;65693;49.798;10.968;2023-02-01T00:56:10;3.05;;;1.80;;
49972;SDS011;65693;49.798;10.968;2023-02-01T00:58:37;2.72;;;1.50;;
49972;SDS011;65693;49.798;10.968;2023-02-01T01:01:05;2.63;;;1.42;;
49972;SDS011;65693;49.798;10.968;2023-02-01T01:03:34;3.10;;;1.88;;
49972;SDS011;65693;49.798;10.968;2023-02-01T01:06:03;1.77;;;1.40;;
49972;SDS011;65693;49.798;10.968;2023-02-01T01:08:31;3.08;;;1.63;;
49972;SDS011;65693;49.798;10.968;2023-02-01T01:10:59;4.18;;;1.70;;
49972;SDS011;65693;49.798;10.968;2023-02-01T01:13:30;2.58;;;1.52;;
49972;SDS011;65693;49.798;10.968;2023-02-01T01:15:59;2.45;;;1.60;;
49972;SDS011;65693;49.798;10.968;2023-02-01T01:18:27;2.28;;;1.45;;
49972;SDS011;65693;49.798;10.968;2023-02-01T01:20:54;2.55;;;1.50;;
49972;SDS011;65693;49.798;10.968;2023-02-01T01:23:20;2.40;;;1.50;;
49972;SDS011;65693;49.798;10.968;2023-02-01T01:25:46;3.22;;;2.00;;
49972;SDS011;65693;49.798;10.968;2023-02-01T01:28:14;2.72;;;1.80;;
49972;SDS011;65693;49.798;10.968;2023-02-01T01:30:41;2.72;;;1.58;;
49972;SDS011;65693;49.798;10.968;2023-02-01T01:33:07;2.75;;;1.85;;
49972;SDS011;65693;49.798;10.968;2023-02-01T01:35:34;2.50;;;1.60;;
49972;SDS011;65693;49.798;10.968;2023-02-01T01:38:00;2.83;;;1.92;;
49972;SDS011;65693;49.798;10.968;2023-02-01T01:40:28;2.15;;;1.42;;
49972;SDS011;65693;49.798;10.968;2023-02-01T01:42:56;2.85;;;1.50;;
49972;SDS011;65693;49.798;10.968;2023-02-01T01:45:25;2.90;;;1.60;;
49972;SDS011;65693;49.798;10.968;2023-02-01T01:47:54;2.67;;;1.52;;
49972;SDS011;65693;49.798;10.968;2023-02-01T01:50:23;3.20;;;1.40;;
49972;SDS011;65693;49.798;10.968;2023-02-01T01:52:53;3.35;;;1.80;;
49972;SDS011;65693;49.798;10.968;2023-02-01T01:55:22;2.90;;;1.60;;
49972;SDS011;65693;49.798;10.968;2023-02-01T01:57:52;2.42;;;1.50;;
49972;SDS011;65693;49.798;10.968;2023-02-01T02:00:24;3.70;;;1.73;;
49972;SDS011;65693;49.798;10.968;2023-02-01T02:02:53;2.83;;;1.60;;
49972;SDS011;65693;49.798;10.968;2023-02-01T02:05:24;2.25;;;1.50;;
49972;SDS011;65693;49.798;10.968;2023-02-01T02:07:52;2.08;;;1.55;;
49972;SDS011;65693;49.798;10.968;2023-02-01T02:10:23;2.47;;;1.60;;
49972;SDS011;65693;49.798;10.968;2023-02-01T02:13:10;2.72;;;1.70;;
49972;SDS011;65693;49.798;10.968;2023-02-01T02:15:40;2.42;;;1.50;;
49972;SDS011;65693;49.798;10.968;2023-02-01T02:18:12;2.30;;;1.45;;
49972;SDS011;65693;49.798;10.968;2023-02-01T02:21:02;2.22;;;1.40;;
49972;SDS011;65693;49.798;10.968;2023-02-01T02:23:43;3.10;;;1.50;;
49972;SDS011;65693;49.798;10.968;2023-02-01T02:26:39;2.17;;;1.33;;
49972;SDS011;65693;49.798;10.968;2023-02-01T02:29:36;2.17;;;1.55;;
49972;SDS011;65693;49.798;10.968;2023-02-01T02:32:22;2.75;;;1.50;;
49972;SDS011;65693;49.798;10.968;2023-02-01T02:35:15;2.90;;;1.45;;
49972;SDS011;65693;49.798;10.968;2023-02-01T02:37:53;2.83;;;1.40;;
49972;SDS011;65693;49.798;10.968;2023-02-01T02:40:29;2.15;;;1.40;;
49972;SDS011;65693;49.798;10.968;2023-02-01T02:43:01;2.78;;;1.65;;
49972;SDS011;65693;49.798;10.968;2023-02-01T02:45:52;3.00;;;1.75;;
49972;SDS011;65693;49.798;10.968;2023-02-01T02:48:59;2.50;;;1.48;;
49972;SDS011;65693;49.798;10.968;2023-02-01T02:51:32;3.00;;;1.65;;
49972;SDS011;65693;49.798;10.968;2023-02-01T02:54:22;2.60;;;1.88;;
49972;SDS011;65693;49.798;10.968;2023-02-01T02:57:12;1.83;;;1.35;;
49972;SDS011;65693;49.798;10.968;2023-02-01T03:00:00;2.40;;;1.77;;
49972;SDS011;65693;49.798;10.968;2023-02-01T03:02:47;2.45;;;1.40;;
49972;SDS011;65693;49.798;10.968;2023-02-01T03:05:32;3.13;;;1.92;;
49972;SDS011;65693;49.798;10.968;2023-02-01T03:08:03;2.33;;;1.45;;
49972;SDS011;65693;49.798;10.968;2023-02-01T03:10:38;2.67;;;1.60;;
49972;SDS011;65693;49.798;10.968;2023-02-01T03:13:11;2.58;;;1.60;;
49972;SDS011;65693;49.798;10.968;2023-02-01T03:15:42;2.10;;;1.38;;
49972;SDS011;65693;49.798;10.968;2023-02-01T03:18:17;2.75;;;1.73;;
49972;SDS011;65693;49.798;10.968;2023-02-01T03:20:48;2.35;;;1.52;;
49972;SDS011;65693;49.798;10.968;2023-02-01T03:23:19;2.50;;;1.42;;
49972;SDS011;65693;49.798;10.968;2023-02-01T03:25:49;2.78;;;1.70;;
49972;SDS011;65693;49.798;10.968;2023-02-01T03:28:17;2.53;;;1.50;;
49972;SDS011;65693;49.798;10.968;2023-02-01T03:30:46;2.60;;;1.60;;
49972;SDS011;65693;49.798;10.968;2023-02-01T03:33:15;3.35;;;1.33;;
49972;SDS011;65693;49.798;10.968;2023-02-01T03:35:48;2.85;;;1.60;;
49972;SDS011;65693;49.798;10.968;2023-02-01T03:38:22;2.30;;;1.50;;
49972;SDS011;65693;49.798;10.968;2023-02-01T03:40:52;4.18;;;1.70;;
49972;SDS011;65693;49.798;10.968;2023-02-01T03:43:27;2.15;;;1.38;;
49972;SDS011;65693;49.798;10.968;2023-02-01T03:46:00;2.63;;;1.52;;
49972;SDS011;65693;49.798;10.968;2023-02-01T03:48:30;2.58;;;1.52;;
49972;SDS011;65693;49.798;10.968;2023-02-01T03:50:58;2.03;;;1.40;;
49972;SDS011;65693;49.798;10.968;2023-02-01T03:53:30;2.17;;;1.50;;
49972;SDS011;65693;49.798;10.968;2023-02-01T03:56:01;2.40;;;1.58;;
49972;SDS011;65693;49.798;10.968;2023-02-01T03:58:28;3.40;;;1.50;;
49972;SDS011;65693;49.798;10.968;2023-02-01T04:00:55;2.38;;;1.40;;
49972;SDS011;65693;49.798;10.968;2023-02-01T04:03:23;2.78;;;1.63;;
49972;SDS011;65693;49.798;10.968;2023-02-01T04:05:51;2.67;;;1.60;;
49972;SDS011;65693;49.798;10.968;2023-02-01T04:08:18;2.67;;;1.60;;
49972;SDS011;65693;49.798;10.968;2023-02-01T04:10:47;2.92;;;1.50;;
49972;SDS011;65693;49.798;10.968;2023-02-01T04:13:13;2.20;;;1.30;;
49972;SDS011;65693;49.798;10.968;2023-02-01T04:15:40;2.78;;;1.73;;
49972;SDS011;65693;49.798;10.968;2023-02-01T04:18:06;2.45;;;1.45;;
49972;SDS011;65693;49.798;10.968;2023-02-01T04:20:33;2.42;;;1.40;;
49972;SDS011;65693;49.798;10.968;2023-02-01T04:22:59;2.13;;;1.40;;
49972;SDS011;65693;49.798;10.968;2023-02-01T04:25:27;2.72;;;1.38;;
49972;SDS011;65693;49.798;10.968;2023-02-01T04:27:55;2.28;;;1.48;;
49972;SDS011;65693;49.798;10.968;2023-02-01T04:30:21;1.63;;;1.25;;
49972;SDS011;65693;49.798;10.968;2023-02-01T04:32:48;2.72;;;1.40;;
49972;SDS011;65693;49.798;10.968;2023-02-01T04:35:15;2.30;;;1.45;;
49972;SDS011;65693;49.798;10.968;2023-02-01T04:37:42;3.25;;;1.65;;
49972;SDS011;65693;49.798;10.968;2023-02-01T04:40:09;2.30;;;1.50;;
49972;SDS011;65693;49.798;10.968;2023-02-01T04:42:36;1.92;;;1.30;;
49972;SDS011;65693;49.798;10.968;2023-02-01T04:45:05;2.45;;;1.30;;
49972;SDS011;65693;49.798;10.968;2023-02-01T04:47:32;2.20;;;1.35;;
49972;SDS011;65693;49.798;10.968;2023-02-01T04:49:58;1.55;;;1.15;;
49972;SDS011;65693;49.798;10.968;2023-02-01T04:52:25;1.98;;;1.20;;
49972;SDS011;65693;49.798;10.968;2023-02-01T04:54:52;2.45;;;1.48;;
49972;SDS011;65693;49.798;10.968;2023-02-01T04:57:22;1.90;;;1.30;;
49972;SDS011;65693;49.798;10.968;2023-02-01T04:59:48;2.63;;;1.47;;
49972;SDS011;65693;49.798;10.968;2023-02-01T05:02:16;2.00;;;1.30;;
49972;SDS011;65693;49.798;10.968;2023-02-01T05:04:43;1.95;;;1.23;;
49972;SDS011;65693;49.798;10.968;2023-02-01T05:07:09;1.55;;;1.27;;
49972;SDS011;65693;49.798;10.968;2023-02-01T05:09:36;2.08;;;1.35;;
49972;SDS011;65693;49.798;10.968;2023-02-01T05:12:02;3.50;;;1.45;;
49972;SDS011;65693;49.798;10.968;2023-02-01T05:14:46;2.13;;;1.35;;
49972;SDS011;65693;49.798;10.968;2023-02-01T05:17:14;2.30;;;1.23;;
49972;SDS011;65693;49.798;10.968;2023-02-01T05:19:41;2.53;;;1.50;;
49972;SDS011;65693;49.798;10.968;2023-02-01T05:22:08;2.63;;;1.48;;
49972;SDS011;65693;49.798;10.968;2023-02-01T05:24:34;2.55;;;1.45;;
49972;SDS011;65693;49.798;10.968;2023-02-01T05:27:01;2.53;;;1.38;;
49972;SDS011;65693;49.798;10.968;2023-02-01T05:29:27;2.08;;;1.30;;
49972;SDS011;65693;49.798;10.968;2023-02-01T05:31:53;1.95;;;1.35;;
49972;SDS011;65693;49.798;10.968;2023-02-01T05:34:20;2.13;;;1.20;;
49972;SDS011;65693;49.798;10.968;2023-02-01T05:36:48;2.05;;;1.50;;
49972;SDS011;65693;49.798;10.968;2023-02-01T05:39:14;2.35;;;1.23;;
49972;SDS011;65693;49.798;10.968;2023-02-01T05:41:41;1.95;;;1.30;;
49972;SDS011;65693;49.798;10.968;2023-02-01T05:44:07;2.05;;;1.17;;
49972;SDS011;65693;49.798;10.968;2023-02-01T05:46:34;2.53;;;1.42;;
49972;SDS011;65693;49.798;10.968;2023-02-01T05:49:01;1.75;;;1.27;;
49972;SDS011;65693;49.798;10.968;2023-02-01T05:51:27;2.45;;;1.52;;
49972;SDS011;65693;49.798;10.968;2023-02-01T05:53:55;1.80;;;1.20;;
49972;SDS011;65693;49.798;10.968;2023-02-01T05:56:22;2.33;;;1.35;;
49972;SDS011;65693;49.798;10.968;2023-02-01T05:58:48;2.50;;;1.30;;
49972;SDS011;65693;49.798;10.968;2023-02-01T06:01:15;2.05;;;1.10;;
49972;SDS011;65693;49.798;10.968;2023-02-01T06:03:41;2.15;;;1.10;;
49972;SDS011;65693;49.798;10.968;2023-02-01T06:06:07;2.90;;;1.35;;
49972;SDS011;65693;49.798;10.968;2023-02-01T06:08:34;2.38;;;1.48;;
49972;SDS011;65693;49.798;10.968;2023-02-01T06:11:03;3.05;;;1.58;;
49972;SDS011;65693;49.798;10.968;2023-02-01T06:13:31;3.03;;;2.00;;
49972;SDS011;65693;49.798;10.968;2023-02-01T06:15:58;2.17;;;1.35;;
49972;SDS011;65693;49.798;10.968;2023-02-01T06:18:24;2.03;;;1.25;;
49972;SDS011;65693;49.798;10.968;2023-02-01T06:20:51;2.15;;;1.20;;
49972;SDS011;65693;49.798;10.968;2023-02-01T06:23:19;2.00;;;1.20;;
49972;SDS011;65693;49.798;10.968;2023-02-01T06:25:48;2.35;;;1.30;;
49972;SDS011;65693;49.798;10.968;2023-02-01T06:28:17;1.75;;;1.10;;
49972;SDS011;65693;49.798;10.968;2023-02-01T06:30:44;2.75;;;1.40;;
49972;SDS011;65693;49.798;10.968;2023-02-01T06:33:11;2.47;;;1.25;;
49972;SDS011;65693;49.798;10.968;2023-02-01T06:35:37;2.72;;;1.50;;
49972;SDS011;65693;49.798;10.968;2023-02-01T06:38:04;2.92;;;1.27;;
49972;SDS011;65693;49.798;10.968;2023-02-01T06:40:30;2.42;;;1.27;;
49972;SDS011;65693;49.798;10.968;2023-02-01T06:42:57;4.07;;;1.17;;
49972;SDS011;65693;49.798;10.968;2023-02-01T06:45:24;5.15;;;1.60;;
49972;SDS011;65693;49.798;10.968;2023-02-01T06:47:51;3.33;;;1.45;;
49972;SDS011;65693;49.798;10.968;2023-02-01T06:50:17;2.15;;;1.30;;
49972;SDS011;65693;49.798;10.968;2023-02-01T06:52:44;2.25;;;1.30;;
49972;SDS011;65693;49.798;10.968;2023-02-01T06:55:10;2.50;;;1.33;;
49972;SDS011;65693;49.798;10.968;2023-02-01T06:57:36;4.95;;;1.50;;
49972;SDS011;65693;49.798;10.968;2023-02-01T07:00:03;2.70;;;1.40;;
49972;SDS011;65693;49.798;10.968;2023-02-01T07:02:32;2.55;;;1.27;;
49972;SDS011;65693;49.798;10.968;2023-02-01T07:04:58;2.00;;;1.10;;
49972;SDS011;65693;49.798;10.968;2023-02-01T07:07:25;3.33;;;1.42;;
49972;SDS011;65693;49.798;10.968;2023-02-01T07:09:51;2.50;;;1.27;;
49972;SDS011;65693;49.798;10.968;2023-02-01T07:12:18;3.38;;;1.30;;
49972;SDS011;65693;49.798;10.968;2023-02-01T07:14:45;2.10;;;1.23;;
49972;SDS011;65693;49.798;10.968;2023-02-01T07:17:11;2.63;;;1.48;;
49972;SDS011;65693;49.798;10.968;2023-02-01T07:19:39;2.15;;;1.20;;
49972;SDS011;65693;49.798;10.968;2023-02-01T07:22:05;3.13;;;1.13;;
49972;SDS011;65693;49.798;10.968;2023-02-01T07:24:33;2.63;;;1.38;;
49972;SDS011;65693;49.798;10.968;2023-02-01T07:26:59;5.57;;;1.35;;
49972;SDS011;65693;49.798;10.968;2023-02-01T07:29:26;2.42;;;1.55;;
49972;SDS011;65693;49.798;10.968;2023-02-01T07:31:52;2.65;;;1.10;;
49972;SDS011;65693;49.798;10.968;2023-02-01T07:34:19;2.05;;;1.42;;
49972;SDS011;65693;49.798;10.968;2023-02-01T07:36:46;2.13;;;1.30;;
49972;SDS011;65693;49.798;10.968;2023-02-01T07:39:13;3.13;;;1.40;;
49972;SDS011;65693;49.798;10.968;2023-02-01T07:41:39;2.22;;;1.20;;
49972;SDS011;65693;49.798;10.968;2023-02-01T07:44:06;1.98;;;1.05;;
49972;SDS011;65693;49.798;10.968;2023-02-01T07:46:32;2.10;;;1.10;;
49972;SDS011;65693;49.798;10.968;2023-02-01T07:48:58;1.50;;;1.08;;
49972;SDS011;65693;49.798;10.968;2023-02-01T07:51:25;1.98;;;1.23;;
49972;SDS011;65693;49.798;10.968;2023-02-01T13:48:17;6.28;;;1.50;;
49972;SDS011;65693;49.798;10.968;2023-02-01T13:50:49;4.35;;;1.55;;
49972;SDS011;65693;49.798;10.968;2023-02-01T13:53:18;5.05;;;1.63;;
49972;SDS011;65693;49.798;10.968;2023-02-01T13:55:54;4.43;;;1.52;;
49972;SDS011;65693;49.798;10.968;2023-02-01T13:58:28;6.03;;;1.52;;
49972;SDS011;65693;49.798;10.968;2023-02-01T14:07:15;6.28;;;1.50;;
49972;SDS011;65693;49.798;10.968;2023-02-01T14:09:44;8.05;;;1.88;;
49972;SDS011;65693;49.798;10.968;2023-02-01T14:15:16;5.65;;;1.40;;
49972;SDS011;65693;49.798;10.968;2023-02-01T14:17:46;4.82;;;1.90;;
49972;SDS011;65693;49.798;10.968;2023-02-01T14:23:22;4.10;;;1.38;;
49972;SDS011;65693;49.798;10.968;2023-02-01T14:26:02;5.15;;;1.45;;
49972;SDS011;65693;49.798;10.968;2023-02-01T14:28:35;7.28;;;1.70;;
49972;SDS011;65693;49.798;10.968;2023-02-01T14:31:13;5.60;;;1.20;;
49972;SDS011;65693;49.798;10.968;2023-02-01T14:33:43;3.97;;;1.50;;
49972;SDS011;65693;49.798;10.968;2023-02-01T14:36:11;3.38;;;1.38;;
49972;SDS011;65693;49.798;10.968;2023-02-01T14:38:47;4.82;;;1.48;;
49972;SDS011;65693;49.798;10.968;2023-02-01T14:47:02;3.42;;;1.52;;
49972;SDS011;65693;49.798;10.968;2023-02-01T14:49:47;3.95;;;1.70;;
49972;SDS011;65693;49.798;10.968;2023-02-01T14:52:19;5.22;;;1.70;;
49972;SDS011;65693;49.798;10.968;2023-02-01T14:54:56;5.72;;;1.60;;
49972;SDS011;65693;49.798;10.968;2023-02-01T14:57:27;5.65;;;1.80;;
49972;SDS011;65693;49.798;10.968;2023-02-01T14:59:58;4.57;;;1.45;;
49972;SDS011;65693;49.798;10.968;2023-02-01T15:02:27;5.28;;;1.50;;
49972;SDS011;65693;49.798;10.968;2023-02-01T15:04:56;6.22;;;2.13;;
49972;SDS011;65693;49.798;10.968;2023-02-01T15:07:23;3.35;;;1.40;;
49972;SDS011;65693;49.798;10.968;2023-02-01T15:09:54;4.40;;;1.65;;
49972;SDS011;65693;49.798;10.968;2023-02-01T15:12:24;4.32;;;1.50;;
49972;SDS011;65693;49.798;10.968;2023-02-01T15:15:12;4.95;;;1.70;;
49972;SDS011;65693;49.798;10.968;2023-02-01T15:17:41;3.53;;;1.63;;
49972;SDS011;65693;49.798;10.968;2023-02-01T15:20:12;3.85;;;1.42;;
49972;SDS011;65693;49.798;10.968;2023-02-01T15:22:41;4.50;;;1.85;;
49972;SDS011;65693;49.798;10.968;2023-02-01T15:25:19;6.22;;;1.67;;
49972;SDS011;65693;49.798;10.968;2023-02-01T15:27:49;5.13;;;1.70;;
49972;SDS011;65693;49.798;10.968;2023-02-01T15:30:17;4.35;;;1.77;;
49972;SDS011;65693;49.798;10.968;2023-02-01T15:32:45;6.22;;;2.20;;
49972;SDS011;65693;49.798;10.968;2023-02-01T15:35:31;7.88;;;1.70;;
49972;SDS011;65693;49.798;10.968;2023-02-01T15:41:03;4.32;;;1.42;;
49972;SDS011;65693;49.798;10.968;2023-02-01T15:43:33;5.80;;;1.70;;
49972;SDS011;65693;49.798;10.968;2023-02-01T15:46:02;4.85;;;1.60;;
49972;SDS011;65693;49.798;10.968;2023-02-01T15:48:34;6.45;;;1.85;;
49972;SDS011;65693;49.798;10.968;2023-02-01T15:51:04;3.60;;;1.58;;
49972;SDS011;65693;49.798;10.968;2023-02-01T15:53:31;4.72;;;1.40;;
49972;SDS011;65693;49.798;10.968;2023-02-01T15:55:59;5.35;;;1.30;;
49972;SDS011;65693;49.798;10.968;2023-02-01T15:58:30;6.18;;;1.75;;
49972;SDS011;65693;49.798;10.968;2023-02-01T16:00:59;6.88;;;1.70;;
49972;SDS011;65693;49.798;10.968;2023-02-01T16:03:33;4.97;;;1.48;;
49972;SDS011;65693;49.798;10.968;2023-02-01T16:06:02;5.38;;;1.58;;
49972;SDS011;65693;49.798;10.968;2023-02-01T16:08:30;5.03;;;1.63;;
49972;SDS011;65693;49.798;10.968;2023-02-01T16:11:00;5.43;;;1.38;;
49972;SDS011;65693;49.798;10.968;2023-02-01T16:13:27;4.32;;;1.33;;
49972;SDS011;65693;49.798;10.968;2023-02-01T16:15:55;4.38;;;1.50;;
49972;SDS011;65693;49.798;10.968;2023-02-01T16:18:21;3.67;;;1.60;;
49972;SDS011;65693;49.798;10.968;2023-02-01T16:20:48;6.93;;;1.65;;
49972;SDS011;65693;49.798;10.968;2023-02-01T16:23:14;3.92;;;1.58;;
49972;SDS011;65693;49.798;10.968;2023-02-01T16:25:41;4.95;;;1.38;;
49972;SDS011;65693;49.798;10.968;2023-02-01T16:28:08;4.35;;;1.42;;
49972;SDS011;65693;49.798;10.968;2023-02-01T16:30:35;4.60;;;1.58;;
49972;SDS011;65693;49.798;10.968;2023-02-01T16:33:03;4.00;;;1.55;;
49972;SDS011;65693;49.798;10.968;2023-02-01T16:35:32;4.68;;;1.80;;
49972;SDS011;65693;49.798;10.968;2023-02-01T16:38:01;2.88;;;1.10;;
49972;SDS011;65693;49.798;10.968;2023-02-01T16:40:28;3.42;;;1.38;;
49972;SDS011;65693;49.798;10.968;2023-02-01T16:42:54;4.20;;;1.35;;
49972;SDS011;65693;49.798;10.968;2023-02-01T16:45:21;3.33;;;1.58;;
49972;SDS011;65693;49.798;10.968;2023-02-01T16:47:48;5.78;;;1.55;;
49972;SDS011;65693;49.798;10.968;2023-02-01T16:50:19;3.20;;;1.42;;
49972;SDS011;65693;49.798;10.968;2023-02-01T16:52:48;4.93;;;1.48;;
49972;SDS011;65693;49.798;10.968;2023-02-01T16:55:15;4.63;;;1.40;;
49972;SDS011;65693;49.798;10.968;2023-02-01T16:57:43;4.82;;;1.50;;
49972;SDS011;65693;49.798;10.968;2023-02-01T17:00:11;4.78;;;1.65;;
49972;SDS011;65693;49.798;10.968;2023-02-01T17:02:38;4.43;;;1.58;;
49972;SDS011;65693;49.798;10.968;2023-02-01T17:05:06;4.43;;;1.52;;
49972;SDS011;65693;49.798;10.968;2023-02-01T17:07:34;4.55;;;1.60;;
49972;SDS011;65693;49.798;10.968;2023-02-01T17:10:03;5.18;;;1.60;;
49972;SDS011;65693;49.798;10.968;2023-02-01T17:12:31;5.32;;;1.65;;
49972;SDS011;65693;49.798;10.968;2023-02-01T17:14:58;5.03;;;1.70;;
49972;SDS011;65693;49.798;10.968;2023-02-01T17:17:27;5.13;;;1.80;;
49972;SDS011;65693;49.798;10.968;2023-02-01T17:19:58;5.13;;;1.80;;
49972;SDS011;65693;49.798;10.968;2023-02-01T17:22:24;4.60;;;1.48;;
49972;SDS011;65693;49.798;10.968;2023-02-01T17:24:52;6.30;;;1.40;;
49972;SDS011;65693;49.798;10.968;2023-02-01T17:27:19;6.88;;;1.98;;
49972;SDS011;65693;49.798;10.968;2023-02-01T17:29:45;6.43;;;1.75;;
49972;SDS011;65693;49.798;10.968;2023-02-01T17:32:14;3.85;;;1.50;;
49972;SDS011;65693;49.798;10.968;2023-02-01T17:34:43;5.25;;;1.90;;
49972;SDS011;65693;49.798;10.968;2023-02-01T17:37:10;4.00;;;1.50;;
49972;SDS011;65693;49.798;10.968;2023-02-01T17:39:58;5.50;;;1.45;;
49972;SDS011;65693;49.798;10.968;2023-02-01T17:42:26;5.88;;;1.50;;
49972;SDS011;65693;49.798;10.968;2023-02-01T17:44:54;5.22;;;1.60;;
49972;SDS011;65693;49.798;10.968;2023-02-01T17:47:22;4.38;;;1.70;;
49972;SDS011;65693;49.798;10.968;2023-02-01T17:49:49;3.88;;;1.50;;
49972;SDS011;65693;49.798;10.968;2023-02-01T17:52:20;5.93;;;1.60;;
49972;SDS011;65693;49.798;10.968;2023-02-01T17:54:48;4.88;;;1.58;;
49972;SDS011;65693;49.798;10.968;2023-02-01T17:57:19;4.10;;;1.65;;
49972;SDS011;65693;49.798;10.968;2023-02-01T17:59:46;3.13;;;1.42;;
49972;SDS011;65693;49.798;10.968;2023-02-01T18:02:17;5.50;;;2.00;;
49972;SDS011;65693;49.798;10.968;2023-02-01T18:04:45;4.85;;;1.63;;
49972;SDS011;65693;49.798;10.968;2023-02-01T18:07:11;4.82;;;1.88;;
49972;SDS011;65693;49.798;10.968;2023-02-01T18:09:37;4.45;;;1.63;;
49972;SDS011;65693;49.798;10.968;2023-02-01T18:12:05;5.88;;;1.90;;
49972;SDS011;65693;49.798;10.968;2023-02-01T18:14:40;4.25;;;1.55;;
49972;SDS011;65693;49.798;10.968;2023-02-01T18:17:08;5.03;;;1.52;;
49972;SDS011;65693;49.798;10.968;2023-02-01T18:19:36;4.10;;;1.70;;
49972;SDS011;65693;49.798;10.968;2023-02-01T18:22:02;4.90;;;1.60;;
49972;SDS011;65693;49.798;10.968;2023-02-01T18:24:29;5.90;;;1.52;;
49972;SDS011;65693;49.798;10.968;2023-02-01T18:26:57;5.20;;;1.60;;
49972;SDS011;65693;49.798;10.968;2023-02-01T18:29:24;5.18;;;1.65;;
49972;SDS011;65693;49.798;10.968;2023-02-01T18:31:52;4.38;;;1.60;;
49972;SDS011;65693;49.798;10.968;2023-02-01T18:34:18;4.60;;;1.80;;
49972;SDS011;65693;49.798;10.968;2023-02-01T18:36:46;5.28;;;1.70;;
49972;SDS011;65693;49.798;10.968;2023-02-01T18:39:13;5.53;;;1.67;;
49972;SDS011;65693;49.798;10.968;2023-02-01T18:41:39;4.80;;;1.40;;
49972;SDS011;65693;49.798;10.968;2023-02-01T18:44:08;4.55;;;1.60;;
49972;SDS011;65693;49.798;10.968;2023-02-01T18:46:39;4.28;;;1.60;;
49972;SDS011;65693;49.798;10.968;2023-02-01T18:49:07;4.50;;;1.45;;
49972;SDS011;65693;49.798;10.968;2023-02-01T18:51:33;3.90;;;1.38;;
49972;SDS011;65693;49.798;10.968;2023-02-01T18:54:00;5.65;;;1.70;;
49972;SDS011;65693;49.798;10.968;2023-02-01T18:56:26;4.78;;;1.40;;
49972;SDS011;65693;49.798;10.968;2023-02-01T18:58:53;5.32;;;2.00;;
49972;SDS011;65693;49.798;10.968;2023-02-01T19:01:20;3.38;;;1.30;;
49972;SDS011;65693;49.798;10.968;2023-02-01T19:03:47;5.88;;;1.63;;
49972;SDS011;65693;49.798;10.968;2023-02-01T19:06:15;6.07;;;1.88;;
49972;SDS011;65693;49.798;10.968;2023-02-01T19:08:43;3.80;;;1.50;;
49972;SDS011;65693;49.798;10.968;2023-02-01T19:11:10;5.50;;;1.70;;
49972;SDS011;65693;49.798;10.968;2023-02-01T19:13:37;4.45;;;1.65;;
49972;SDS011;65693;49.798;10.968;2023-02-01T19:16:06;4.43;;;1.23;;
49972;SDS011;65693;49.798;10.968;2023-02-01T19:18:33;4.93;;;1.45;;
49972;SDS011;65693;49.798;10.968;2023-02-01T19:21:02;3.35;;;1.20;;
49972;SDS011;65693;49.798;10.968;2023-02-01T19:23:30;4.25;;;1.45;;
49972;SDS011;65693;49.798;10.968;2023-02-01T19:25:57;3.63;;;1.13;;
49972;SDS011;65693;49.798;10.968;2023-02-01T19:28:23;3.45;;;1.33;;
49972;SDS011;65693;49.798;10.968;2023-02-01T19:30:54;5.65;;;1.40;;
49972;SDS011;65693;49.798;10.968;2023-02-01T19:33:26;5.25;;;1.55;;
49972;SDS011;65693;49.798;10.968;2023-02-01T19:35:55;4.47;;;1.55;;
49972;SDS011;65693;49.798;10.968;2023-02-01T19:38:22;3.47;;;1.38;;
49972;SDS011;65693;49.798;10.968;2023-02-01T19:40:50;2.50;;;1.20;;
49972;SDS011;65693;49.798;10.968;2023-02-01T19:43:17;4.50;;;1.17;;
49972;SDS011;65693;49.798;10.968;2023-02-01T19:45:43;5.18;;;1.58;;
49972;SDS011;65693;49.798;10.968;2023-02-01T19:48:10;5.80;;;1.48;;
49972;SDS011;65693;49.798;10.968;2023-02-01T19:50:37;4.05;;;1.50;;
49972;SDS011;65693;49.798;10.968;2023-02-01T19:53:05;4.30;;;1.45;;
49972;SDS011;65693;49.798;10.968;2023-02-01T19:55:31;3.17;;;1.17;;
49972;SDS011;65693;49.798;10.968;2023-02-01T19:57:59;4.82;;;1.58;;
49972;SDS011;65693;49.798;10.968;2023-02-01T20:00:29;4.13;;;1.50;;
49972;SDS011;65693;49.798;10.968;2023-02-01T20:02:55;3.85;;;1.25;;
49972;SDS011;65693;49.798;10.968;2023-02-01T20:05:23;3.38;;;1.38;;
49972;SDS011;65693;49.798;10.968;2023-02-01T20:07:49;4.63;;;1.38;;
49972;SDS011;65693;49.798;10.968;2023-02-01T20:10:16;5.32;;;1.17;;
49972;SDS011;65693;49.798;10.968;2023-02-01T20:12:42;4.68;;;1.30;;
49972;SDS011;65693;49.798;10.968;2023-02-01T20:15:13;3.63;;;1.27;;
49972;SDS011;65693;49.798;10.968;2023-02-01T20:17:40;4.45;;;1.20;;
49972;SDS011;65693;49.798;10.968;2023-02-01T20:20:06;4.10;;;1.10;;
49972;SDS011;65693;49.798;10.968;2023-02-01T20:22:34;3.83;;;1.23;;
49972;SDS011;65693;49.798;10.968;2023-02-01T20:25:00;3.85;;;1.25;;
49972;SDS011;65693;49.798;10.968;2023-02-01T20:27:28;3.47;;;1.45;;
49972;SDS011;65693;49.798;10.968;2023-02-01T20:29:55;3.20;;;1.10;;
49972;SDS011;65693;49.798;10.968;2023-02-01T20:32:22;2.67;;;1.10;;
49972;SDS011;65693;49.798;10.968;2023-02-01T20:34:49;3.85;;;1.20;;
49972;SDS011;65693;49.798;10.968;2023-02-01T20:37:17;3.40;;;1.38;;
49972;SDS011;65693;49.798;10.968;2023-02-01T20:39:43;5.43;;;1.55;;
49972;SDS011;65693;49.798;10.968;2023-02-01T20:42:10;4.13;;;1.30;;
49972;SDS011;65693;49.798;10.968;2023-02-01T20:44:37;6.00;;;1.38;;
49972;SDS011;65693;49.798;10.968;2023-02-01T20:47:03;2.72;;;1.25;;
49972;SDS011;65693;49.798;10.968;2023-02-01T20:49:31;5.40;;;1.42;;
49972;SDS011;65693;49.798;10.968;2023-02-01T20:51:58;5.00;;;1.38;;
49972;SDS011;65693;49.798;10.968;2023-02-01T20:54:25;4.45;;;1.52;;
49972;SDS011;65693;49.798;10.968;2023-02-01T20:56:51;4.13;;;1.45;;
49972;SDS011;65693;49.798;10.968;2023-02-01T20:59:17;4.00;;;1.50;;
49972;SDS011;65693;49.798;10.968;2023-02-01T21:01:44;3.92;;;1.10;;